createdAt,value
2019-03-17T00:03:39.656Z,1.00
2019-03-17T00:08:43.645Z,1.03
2019-03-17T00:13:47.591Z,1.90
2019-03-17T00:18:51.894Z,0.90
2019-03-17T00:23:55.609Z,1.13
2019-03-17T00:28:59.318Z,0.87
2019-03-17T00:34:03.055Z,1.83
2019-03-17T00:39:06.933Z,2.57
2019-03-17T00:44:10.701Z,2.13
2019-03-17T00:49:14.430Z,2.60
2019-03-17T00:54:18.212Z,2.53
2019-03-17T00:59:21.984Z,0.90
2019-03-17T01:04:25.673Z,2.40
2019-03-17T01:09:29.357Z,1.67
2019-03-17T01:14:33.409Z,2.50
2019-03-17T01:19:37.076Z,2.90
2019-03-17T01:24:41.005Z,1.80
2019-03-17T01:29:44.677Z,1.83
2019-03-17T01:34:48.372Z,1.70
2019-03-17T01:39:52.045Z,2.03
2019-03-17T01:44:55.697Z,1.90
2019-03-17T01:49:59.625Z,2.00
2019-03-17T01:55:03.497Z,1.60
2019-03-17T02:00:07.862Z,1.43
2019-03-17T02:05:21.580Z,2.03
2019-03-17T02:10:17.205Z,2.50
2019-03-17T02:15:20.853Z,1.73
2019-03-17T02:20:24.525Z,1.70
2019-03-17T02:25:28.190Z,2.07
2019-03-17T02:30:31.891Z,1.43
2019-03-17T02:35:39.540Z,1.80
2019-03-17T02:40:40.922Z,2.40
2019-03-17T02:45:44.561Z,1.50
2019-03-17T02:50:48.218Z,2.80
2019-03-17T02:55:51.859Z,2.67
2019-03-17T03:00:55.507Z,2.03
2019-03-17T03:05:59.171Z,3.37
2019-03-17T03:11:02.803Z,3.20
2019-03-17T03:16:06.498Z,3.77
2019-03-17T03:21:10.184Z,6.83
2019-03-17T03:26:14.161Z,4.53
2019-03-17T03:31:18.151Z,3.70
2019-03-17T03:36:22.147Z,4.17
2019-03-17T03:41:26.145Z,2.83
2019-03-17T03:46:30.384Z,4.57
2019-03-17T03:51:34.044Z,2.70
2019-03-17T03:56:37.691Z,4.17
2019-03-17T04:01:41.652Z,3.30
2019-03-17T04:06:45.295Z,5.87
2019-03-17T04:11:48.938Z,3.40
2019-03-17T04:16:52.712Z,3.97
2019-03-17T04:21:56.385Z,6.27
2019-03-17T04:27:00.114Z,3.93
2019-03-17T04:32:03.861Z,3.73
2019-03-17T04:37:07.511Z,6.53
2019-03-17T04:42:11.199Z,3.57
2019-03-17T04:47:14.941Z,4.07
2019-03-17T04:52:18.696Z,5.13
2019-03-17T04:57:22.361Z,5.67
2019-03-17T05:02:26.015Z,5.10
2019-03-17T05:07:30.095Z,7.07
2019-03-17T05:12:34.028Z,6.43
2019-03-17T05:17:37.705Z,5.77
2019-03-17T05:22:41.371Z,6.90
2019-03-17T05:27:45.033Z,5.33
2019-03-17T05:32:48.745Z,7.83
2019-03-17T05:37:52.705Z,6.03
2019-03-17T05:42:56.674Z,5.70
2019-03-17T05:48:00.886Z,5.70
2019-03-17T05:53:04.633Z,7.47
2019-03-17T05:58:08.318Z,6.27
2019-03-17T06:03:11.961Z,5.73
2019-03-17T06:08:15.934Z,5.40
2019-03-17T06:13:19.672Z,3.93
2019-03-17T06:18:23.335Z,5.23
2019-03-17T06:23:27.002Z,5.20
2019-03-17T06:28:30.746Z,4.27
2019-03-17T06:33:34.417Z,4.40
2019-03-17T06:38:38.072Z,3.80
2019-03-17T06:43:41.729Z,3.93
2019-03-17T06:48:45.450Z,5.27
2019-03-17T06:53:56.363Z,4.83
2019-03-17T06:58:55.154Z,2.73
2019-03-17T07:03:59.086Z,4.17
2019-03-17T07:09:04.138Z,3.30
2019-03-17T07:14:07.798Z,5.20
2019-03-17T07:19:11.761Z,3.47
2019-03-17T07:24:15.422Z,3.20
2019-03-17T07:29:56.667Z,2.27
2019-03-17T07:35:00.848Z,2.00
2019-03-17T07:40:05.058Z,2.37
2019-03-17T07:45:09.213Z,3.30
2019-03-17T07:50:13.238Z,2.03
2019-03-17T07:55:16.906Z,4.33
2019-03-17T08:00:31.334Z,6.10
2019-03-17T08:05:26.270Z,3.67
2019-03-17T08:10:30.014Z,4.43
2019-03-17T08:15:34.015Z,2.67
2019-03-17T08:20:37.681Z,2.50
2019-03-17T08:25:41.647Z,2.13
2019-03-17T08:30:53.014Z,1.70
2019-03-17T08:35:50.741Z,2.70
2019-03-17T08:40:55.042Z,6.03
2019-03-17T08:45:58.711Z,1.98
2019-03-17T08:51:02.378Z,1.55
2019-03-17T08:56:06.166Z,1.52
2019-03-17T09:01:09.829Z,1.67
2019-03-17T09:06:14.014Z,1.77
2019-03-17T09:11:17.663Z,1.25
2019-03-17T09:16:21.795Z,2.70
2019-03-17T09:21:25.482Z,0.98
2019-03-17T09:26:29.140Z,1.27
2019-03-17T09:31:33.065Z,1.57
2019-03-17T09:36:36.729Z,3.62
2019-03-17T09:41:40.421Z,1.45
2019-03-17T09:46:44.090Z,0.78
2019-03-17T09:51:47.796Z,1.82
2019-03-17T09:56:51.594Z,1.00
2019-03-17T10:01:55.267Z,1.60
2019-03-17T10:06:59.248Z,1.40
2019-03-17T10:12:02.947Z,1.25
2019-03-17T10:17:06.698Z,1.25
2019-03-17T10:22:10.363Z,2.00
2019-03-17T10:27:14.050Z,1.45
2019-03-17T10:32:17.711Z,1.00
2019-03-17T10:37:21.424Z,1.60
2019-03-17T10:42:25.373Z,1.75
2019-03-17T10:47:29.060Z,1.52
2019-03-17T10:52:32.744Z,2.02
2019-03-17T10:57:36.402Z,2.98
2019-03-17T11:02:40.077Z,1.92
2019-03-17T11:07:43.983Z,2.87
2019-03-17T11:12:48.010Z,1.87
2019-03-17T11:17:51.673Z,1.52
2019-03-17T11:22:55.385Z,1.00
2019-03-17T11:27:59.076Z,2.42
2019-03-17T11:33:03.049Z,5.55
2019-03-17T11:38:07.018Z,4.12
2019-03-17T11:43:10.911Z,3.17
2019-03-17T11:48:14.869Z,1.30
2019-03-17T11:53:18.581Z,4.42
2019-03-17T11:58:22.249Z,7.58
2019-03-17T12:03:25.984Z,5.15
2019-03-17T12:08:29.704Z,4.03
2019-03-17T12:13:33.426Z,9.13
2019-03-17T12:18:37.106Z,7.20
2019-03-17T12:23:40.786Z,13.30
2019-03-17T12:28:44.782Z,6.95
2019-03-17T12:33:48.433Z,8.53
2019-03-17T12:38:52.088Z,7.10
2019-03-17T12:43:56.079Z,11.50
2019-03-17T12:49:00.296Z,7.80
2019-03-17T12:54:04.035Z,9.45
2019-03-17T12:59:07.798Z,10.00
2019-03-17T13:04:14.493Z,10.48
2019-03-17T13:09:18.479Z,13.65
2019-03-17T13:14:22.153Z,10.45
2019-03-17T13:19:26.318Z,11.75
2019-03-17T13:24:30.103Z,7.95
2019-03-17T13:29:33.745Z,9.50
2019-03-17T13:34:37.768Z,9.60
2019-03-17T13:39:41.459Z,12.95
2019-03-17T13:44:45.761Z,6.43
2019-03-17T13:49:49.430Z,5.67
2019-03-17T13:54:53.111Z,6.50
2019-03-17T13:59:57.073Z,7.03
2019-03-17T14:05:00.826Z,6.47
2019-03-17T14:10:13.685Z,11.40
2019-03-17T14:15:12.269Z,6.83
2019-03-17T14:20:17.021Z,8.63
2019-03-17T14:25:23.243Z,7.17
2019-03-17T14:30:27.946Z,7.72
2019-03-17T14:35:31.672Z,7.50
2019-03-17T14:40:35.642Z,5.47
2019-03-17T14:45:39.375Z,10.03
2019-03-17T14:50:43.322Z,5.80
2019-03-17T14:55:47.314Z,4.03
2019-03-17T15:00:51.196Z,5.55
2019-03-17T15:05:55.013Z,5.87
2019-03-17T15:11:05.962Z,5.40
2019-03-17T15:16:08.765Z,7.13
2019-03-17T15:21:12.492Z,5.07
2019-03-17T15:26:16.224Z,3.80
2019-03-17T15:31:19.869Z,5.60
2019-03-17T15:36:24.084Z,3.00
2019-03-17T15:41:28.101Z,2.60
2019-03-17T15:46:31.847Z,3.73
2019-03-17T15:51:38.705Z,4.97
2019-03-17T15:56:42.394Z,1.90
2019-03-17T16:01:46.082Z,1.20
2019-03-17T16:06:49.801Z,2.80
2019-03-17T16:11:53.485Z,1.47
2019-03-17T16:16:57.439Z,3.90
2019-03-17T16:22:01.368Z,1.63
2019-03-17T16:27:05.033Z,3.03
2019-03-17T16:32:08.685Z,0.80
2019-03-17T16:37:12.434Z,0.87
2019-03-17T16:42:16.060Z,2.03
2019-03-17T16:47:19.752Z,2.43
2019-03-17T16:52:23.729Z,0.73
2019-03-17T16:57:27.401Z,1.03
2019-03-17T17:02:31.399Z,1.33
2019-03-17T17:07:35.078Z,0.87
2019-03-17T17:12:38.834Z,1.53
2019-03-17T17:17:42.512Z,1.13
2019-03-17T17:22:46.322Z,0.77
2019-03-17T17:27:49.998Z,1.13
2019-03-17T17:32:53.681Z,0.80
2019-03-17T17:37:57.650Z,1.03
2019-03-17T17:43:01.675Z,2.70
2019-03-17T17:48:05.415Z,2.60
2019-03-17T17:53:09.431Z,0.87
2019-03-17T17:58:13.168Z,1.13
2019-03-17T18:03:16.856Z,0.93
2019-03-17T18:08:20.590Z,1.03
2019-03-17T18:13:24.557Z,2.20
2019-03-17T18:18:28.715Z,1.87
2019-03-17T18:23:32.397Z,1.07
2019-03-17T18:28:42.437Z,1.30
2019-03-17T18:34:05.368Z,0.97
2019-03-17T18:39:09.193Z,2.17
2019-03-17T18:44:13.669Z,0.73
2019-03-17T18:49:17.446Z,1.83
2019-03-17T18:54:22.031Z,3.80
2019-03-17T18:59:25.781Z,2.60
2019-03-17T19:04:29.437Z,4.23
2019-03-17T19:09:33.133Z,2.33
2019-03-17T19:14:37.094Z,2.20
2019-03-17T19:19:41.154Z,14.37
2019-03-17T19:24:45.170Z,1.23
2019-03-17T19:29:48.902Z,1.30
2019-03-17T19:34:52.647Z,1.43
2019-03-17T19:39:56.328Z,3.03
2019-03-17T19:45:00.269Z,1.53
2019-03-17T19:50:04.406Z,2.97
2019-03-17T19:55:08.209Z,3.30
2019-03-17T20:00:14.232Z,2.67
2019-03-17T20:05:18.491Z,2.53
2019-03-17T20:10:22.813Z,1.97
2019-03-17T20:15:26.798Z,1.87
2019-03-17T20:20:30.712Z,2.47
2019-03-17T20:25:34.374Z,2.80
2019-03-17T20:30:38.046Z,1.53
2019-03-17T20:35:41.735Z,2.47
2019-03-17T20:40:45.386Z,2.33
2019-03-17T20:45:49.083Z,2.40
2019-03-17T20:50:52.794Z,2.10
2019-03-17T20:55:56.450Z,1.73
2019-03-17T21:01:00.261Z,1.93
2019-03-17T21:06:04.386Z,2.70
2019-03-17T21:11:08.066Z,1.87
2019-03-17T21:16:12.041Z,3.70
2019-03-17T21:21:16.053Z,2.23
2019-03-17T21:26:19.745Z,1.27
2019-03-17T21:31:23.392Z,2.10
2019-03-17T21:36:27.343Z,2.97
2019-03-17T21:41:31.026Z,1.50
2019-03-17T21:46:35.130Z,3.17
2019-03-17T21:51:38.822Z,2.30
2019-03-17T21:56:42.732Z,1.20
2019-03-17T22:01:46.978Z,1.20
2019-03-17T22:06:50.696Z,2.03
2019-03-17T22:11:54.415Z,1.90
2019-03-17T22:16:58.104Z,2.60
2019-03-17T22:22:01.762Z,1.30
2019-03-17T22:27:05.430Z,2.87
2019-03-17T22:32:09.619Z,1.00
2019-03-17T22:37:13.581Z,1.17
2019-03-17T22:42:17.253Z,2.23
2019-03-17T22:47:21.178Z,1.53
2019-03-17T22:52:24.854Z,1.77
2019-03-17T22:57:29.206Z,1.00
2019-03-17T23:02:33.197Z,1.23
2019-03-17T23:07:37.345Z,1.97
2019-03-17T23:12:41.090Z,2.10
2019-03-17T23:17:45.507Z,1.90
2019-03-17T23:22:49.151Z,2.63
2019-03-17T23:27:52.829Z,3.20
2019-03-17T23:32:56.769Z,4.07
2019-03-17T23:38:00.426Z,2.90
2019-03-17T23:43:04.101Z,3.17
2019-03-17T23:48:07.788Z,2.20
2019-03-17T23:53:11.866Z,2.67
2019-03-17T23:58:15.546Z,1.80
